• Join FlightAware (Why Join?)
  • Login
  • US Flag 
09:04AM EDT


 

Airport Tracker/Info


-or-


 

Live Flight TrackerFlight Track Log ✈ CNS22 ✈ 12-May-2013 ✈ MYNN / NAS - KPBI

Flight Track Log - Related Links

Times and Time Zones

All times are in EDT time to prevent confusion due to time zone crossing. See the CNS22 flight status page for this flight to view local times or setup timezone preferences in your user account.

Time Position Orientation Groundspeed Altitude Reporting Facility
EDT Latitude Longitude Course Direction KTS MPH feet Rate Location/Type
08:11AM 25.3467 -77.9717 318° Northwest 247 284 13,600  Level Miami Center
08:12AM 25.3756 -78.0181 305° West 211 243 14,600 900 Climbing Miami Center
08:13AM 25.4086 -78.0667 307° West 195 224 15,500 840 Climbing Miami Center
08:14AM 25.4375 -78.1153 303° West 195 224 16,300 480 Climbing Miami Center
08:15AM 25.4706 -78.1686 304° West 195 224 16,500 60 Climbing Miami Center
08:16AM 25.2573 -77.7739 318° Northwest  Level FlightAware Approximate
08:16AM 25.5097 -78.2267 307° West 212 244 16,500  Level Miami Center
08:17AM 25.5489 -78.2892 305° West 234 269 16,500  Level Miami Center
08:18AM 25.5900 -78.3494 307° West 247 284 16,500  Level Miami Center
08:19AM 25.6292 -78.4122 305° West 247 284 16,500  Level Miami Center
08:20AM 25.6703 -78.4728 307° West 247 284 16,500 -120 Level Miami Center
08:21AM 25.7050 -78.5356 302° West 247 284 16,300 -360 Descending Miami Center
08:22AM 25.7461 -78.5961 307° West 242 278 15,800 -540 Descending Miami Center
08:23AM 25.7808 -78.6589 302° West 242 278 15,300 -540 Descending Miami Center
08:24AM 25.8219 -78.7194 307° West 242 278 14,800 -420 Descending Miami Center
08:25AM 25.8567 -78.7800 303° West 242 278 14,500 -180 Descending Miami Center
08:26AM 25.8975 -78.8431 306° West 242 278 14,500  Level Miami Center
08:27AM 25.9325 -78.8944 307° West 242 278 14,500  Level Miami Center
08:28AM 25.9711 -78.9553 305° West 242 278 14,500 -60 Level Miami Center
08:29AM 26.0100 -79.0114 308° West 242 278 14,400 -60 Descending Miami Center
08:30AM 26.0489 -79.0722 305° West 242 278 14,400 -240 Level Miami Center
08:31AM 26.0897 -79.1356 306° West 247 284 14,000 -480 Descending Miami Center
08:32AM 26.1283 -79.1986 304° West 247 284 13,500 -600 Descending Miami Center
08:33AM 26.1672 -79.2597 305° West 242 278 12,900 -600 Descending Miami Center
08:34AM 26.2078 -79.3231 306° West 247 284 12,400 -600 Descending Miami Center
08:35AM 26.2444 -79.3839 304° West 247 284 11,800 -660 Descending Miami Center
08:36AM 26.2828 -79.4542 301° West 242 278 11,100 -660 Descending Miami Center
08:37AM 26.3194 -79.5083 307° West 248 285 10,500 -780 Descending Miami Center
08:38AM 26.3622 -79.5789 304° West 248 285 9,600 -960 Descending Miami Center
08:39AM 26.3944 -79.6331 304° West 243 280 8,600 -1,140 Descending Miami Center
08:40AM 26.4392 -79.7036 305° West 243 280 7,400 -1,080 Descending Miami Center
08:41AM 26.4714 -79.7578 304° West 243 280 6,500 -540 Descending Miami Center
08:42AM 26.5203 -79.8169 313° West 243 280 6,400 -540 Descending Miami Center
08:43AM 26.5656 -79.8600 320° Northwest 237 273 5,500 -1,200 Descending Miami Center
08:44AM 26.6186 -79.9125 319° Northwest 237 273 4,100 -1,620 Descending Miami Center
08:45AM 26.6639 -79.9461 326° Northwest 227 261 2,300 -1,260 Descending Miami Center
08:46AM 26.6775 -79.9975 287° West 169 194 1,600 -660 Descending Miami Center
08:47AM 26.6789 -80.0325 273° West 141 162 1,000 -600 Descending Miami Center
08:49AM 26.6667 -80.0833 North  Level FlightAware Approximate
08:56AM 26.6832 -80.0956 North  Level Estimated
08:57AM 26.6832 -80.0956 North  Level Estimated